sensor_id;sensor_type;location;lat;lon;timestamp;temperature;humidity
4002;DHT22;2015;48.670;9.060;2022-08-21T00:00:52;14.50;99.90
4002;DHT22;2015;48.670;9.060;2022-08-21T00:03:23;14.50;99.90
4002;DHT22;2015;48.670;9.060;2022-08-21T00:05:55;14.50;99.90
4002;DHT22;2015;48.670;9.060;2022-08-21T00:08:27;14.50;99.90
4002;DHT22;2015;48.670;9.060;2022-08-21T00:11:00;14.40;99.90
4002;DHT22;2015;48.670;9.060;2022-08-21T00:13:33;14.40;99.90
4002;DHT22;2015;48.670;9.060;2022-08-21T00:16:05;14.30;99.90
4002;DHT22;2015;48.670;9.060;2022-08-21T00:18:37;14.30;99.90
4002;DHT22;2015;48.670;9.060;2022-08-21T00:21:14;14.30;99.90
4002;DHT22;2015;48.670;9.060;2022-08-21T00:23:46;14.30;99.90
4002;DHT22;2015;48.670;9.060;2022-08-21T00:26:18;14.20;99.90
4002;DHT22;2015;48.670;9.060;2022-08-21T00:28:50;14.20;99.90
4002;DHT22;2015;48.670;9.060;2022-08-21T00:31:22;14.20;99.90
4002;DHT22;2015;48.670;9.060;2022-08-21T00:33:53;14.20;99.90
4002;DHT22;2015;48.670;9.060;2022-08-21T00:36:31;14.20;99.90
4002;DHT22;2015;48.670;9.060;2022-08-21T00:39:04;14.20;99.90
4002;DHT22;2015;48.670;9.060;2022-08-21T00:41:38;14.20;99.90
4002;DHT22;2015;48.670;9.060;2022-08-21T00:44:12;14.20;99.90
4002;DHT22;2015;48.670;9.060;2022-08-21T00:46:44;14.20;99.90
4002;DHT22;2015;48.670;9.060;2022-08-21T00:49:16;14.30;99.90
4002;DHT22;2015;48.670;9.060;2022-08-21T00:51:55;14.30;99.90
4002;DHT22;2015;48.670;9.060;2022-08-21T00:54:31;14.30;99.90
4002;DHT22;2015;48.670;9.060;2022-08-21T00:57:07;14.30;99.90
4002;DHT22;2015;48.670;9.060;2022-08-21T00:59:41;14.30;99.90
4002;DHT22;2015;48.670;9.060;2022-08-21T01:02:16;14.30;99.90
4002;DHT22;2015;48.670;9.060;2022-08-21T01:04:48;14.30;99.90
4002;DHT22;2015;48.670;9.060;2022-08-21T01:07:20;14.20;99.90
4002;DHT22;2015;48.670;9.060;2022-08-21T01:09:53;14.20;99.90
4002;DHT22;2015;48.670;9.060;2022-08-21T01:12:25;14.10;99.90
4002;DHT22;2015;48.670;9.060;2022-08-21T01:14:57;14.00;99.90
4002;DHT22;2015;48.670;9.060;2022-08-21T01:17:30;14.00;99.90
4002;DHT22;2015;48.670;9.060;2022-08-21T01:20:07;14.00;99.90
4002;DHT22;2015;48.670;9.060;2022-08-21T01:22:40;13.90;99.90
4002;DHT22;2015;48.670;9.060;2022-08-21T01:25:14;13.90;99.90
4002;DHT22;2015;48.670;9.060;2022-08-21T01:27:46;13.90;99.90
4002;DHT22;2015;48.670;9.060;2022-08-21T01:30:24;13.90;99.90
4002;DHT22;2015;48.670;9.060;2022-08-21T01:32:56;13.80;99.90
4002;DHT22;2015;48.670;9.060;2022-08-21T01:35:29;13.80;99.90
4002;DHT22;2015;48.670;9.060;2022-08-21T01:38:01;13.80;99.90
4002;DHT22;2015;48.670;9.060;2022-08-21T01:40:32;13.70;99.90
4002;DHT22;2015;48.670;9.060;2022-08-21T01:43:04;13.70;99.90
4002;DHT22;2015;48.670;9.060;2022-08-21T01:45:36;13.70;99.90
4002;DHT22;2015;48.670;9.060;2022-08-21T01:48:08;13.70;99.90
4002;DHT22;2015;48.670;9.060;2022-08-21T01:50:40;13.60;99.90
4002;DHT22;2015;48.670;9.060;2022-08-21T01:53:12;13.60;99.90
4002;DHT22;2015;48.670;9.060;2022-08-21T01:55:46;13.60;99.90
4002;DHT22;2015;48.670;9.060;2022-08-21T01:58:18;13.60;99.90
4002;DHT22;2015;48.670;9.060;2022-08-21T02:00:50;13.50;99.90
4002;DHT22;2015;48.670;9.060;2022-08-21T02:03:22;13.50;99.90
4002;DHT22;2015;48.670;9.060;2022-08-21T02:06:06;13.40;99.90
4002;DHT22;2015;48.670;9.060;2022-08-21T02:08:38;13.40;99.90
4002;DHT22;2015;48.670;9.060;2022-08-21T02:11:10;13.40;99.90
4002;DHT22;2015;48.670;9.060;2022-08-21T02:13:42;13.40;99.90
4002;DHT22;2015;48.670;9.060;2022-08-21T02:16:14;13.40;99.90
4002;DHT22;2015;48.670;9.060;2022-08-21T02:18:49;13.40;99.90
4002;DHT22;2015;48.670;9.060;2022-08-21T02:21:21;13.40;99.90
4002;DHT22;2015;48.670;9.060;2022-08-21T02:23:53;13.40;99.90
4002;DHT22;2015;48.670;9.060;2022-08-21T02:26:25;13.40;99.90
4002;DHT22;2015;48.670;9.060;2022-08-21T02:28:58;13.40;99.90
4002;DHT22;2015;48.670;9.060;2022-08-21T02:31:30;13.40;99.90
4002;DHT22;2015;48.670;9.060;2022-08-21T02:34:02;13.40;99.90
4002;DHT22;2015;48.670;9.060;2022-08-21T02:36:34;13.30;99.90
4002;DHT22;2015;48.670;9.060;2022-08-21T02:39:06;13.30;99.90
4002;DHT22;2015;48.670;9.060;2022-08-21T02:41:38;13.30;99.90
4002;DHT22;2015;48.670;9.060;2022-08-21T02:44:10;13.30;99.90
4002;DHT22;2015;48.670;9.060;2022-08-21T02:46:41;13.30;99.90
4002;DHT22;2015;48.670;9.060;2022-08-21T02:49:13;13.20;99.90
4002;DHT22;2015;48.670;9.060;2022-08-21T02:51:45;13.20;99.90
4002;DHT22;2015;48.670;9.060;2022-08-21T02:54:17;13.20;99.90
4002;DHT22;2015;48.670;9.060;2022-08-21T02:56:48;13.20;99.90
4002;DHT22;2015;48.670;9.060;2022-08-21T02:59:20;13.20;99.90
4002;DHT22;2015;48.670;9.060;2022-08-21T03:01:52;13.10;99.90
4002;DHT22;2015;48.670;9.060;2022-08-21T03:04:24;13.10;99.90
4002;DHT22;2015;48.670;9.060;2022-08-21T03:06:56;13.10;99.90
4002;DHT22;2015;48.670;9.060;2022-08-21T03:09:27;13.10;99.90
4002;DHT22;2015;48.670;9.060;2022-08-21T03:11:59;13.10;99.90
4002;DHT22;2015;48.670;9.060;2022-08-21T03:14:31;13.10;99.90
4002;DHT22;2015;48.670;9.060;2022-08-21T03:17:03;13.10;99.90
4002;DHT22;2015;48.670;9.060;2022-08-21T03:19:35;13.10;99.90
4002;DHT22;2015;48.670;9.060;2022-08-21T03:22:06;13.10;99.90
4002;DHT22;2015;48.670;9.060;2022-08-21T03:24:38;13.10;99.90
4002;DHT22;2015;48.670;9.060;2022-08-21T03:27:14;13.10;99.90
4002;DHT22;2015;48.670;9.060;2022-08-21T03:29:46;13.10;99.90
4002;DHT22;2015;48.670;9.060;2022-08-21T03:32:19;13.10;99.90
4002;DHT22;2015;48.670;9.060;2022-08-21T03:34:51;13.00;99.90
4002;DHT22;2015;48.670;9.060;2022-08-21T03:37:23;13.00;99.90
4002;DHT22;2015;48.670;9.060;2022-08-21T03:39:56;13.00;99.90
4002;DHT22;2015;48.670;9.060;2022-08-21T03:42:28;12.90;99.90
4002;DHT22;2015;48.670;9.060;2022-08-21T03:45:00;12.90;99.90
4002;DHT22;2015;48.670;9.060;2022-08-21T03:47:31;12.90;99.90
4002;DHT22;2015;48.670;9.060;2022-08-21T03:50:04;12.90;99.90
4002;DHT22;2015;48.670;9.060;2022-08-21T03:52:36;12.90;99.90
4002;DHT22;2015;48.670;9.060;2022-08-21T03:55:08;12.90;99.90
4002;DHT22;2015;48.670;9.060;2022-08-21T03:57:40;12.90;99.90
4002;DHT22;2015;48.670;9.060;2022-08-21T04:00:14;12.90;99.90
4002;DHT22;2015;48.670;9.060;2022-08-21T04:02:46;12.90;99.90
4002;DHT22;2015;48.670;9.060;2022-08-21T04:05:19;12.80;99.90
4002;DHT22;2015;48.670;9.060;2022-08-21T04:08:01;12.90;99.90
4002;DHT22;2015;48.670;9.060;2022-08-21T04:10:36;12.80;99.90
4002;DHT22;2015;48.670;9.060;2022-08-21T04:13:08;12.80;99.90
4002;DHT22;2015;48.670;9.060;2022-08-21T04:15:40;12.80;99.90
4002;DHT22;2015;48.670;9.060;2022-08-21T04:18:12;12.80;99.90
4002;DHT22;2015;48.670;9.060;2022-08-21T04:20:47;12.80;99.90
4002;DHT22;2015;48.670;9.060;2022-08-21T04:23:21;12.70;99.90
4002;DHT22;2015;48.670;9.060;2022-08-21T04:25:56;12.60;99.90
4002;DHT22;2015;48.670;9.060;2022-08-21T04:28:28;12.60;99.90
4002;DHT22;2015;48.670;9.060;2022-08-21T04:31:01;12.50;99.90
4002;DHT22;2015;48.670;9.060;2022-08-21T04:33:33;12.60;99.90
4002;DHT22;2015;48.670;9.060;2022-08-21T04:36:06;12.60;99.90
4002;DHT22;2015;48.670;9.060;2022-08-21T04:38:38;12.60;99.90
4002;DHT22;2015;48.670;9.060;2022-08-21T04:41:15;12.60;99.90
4002;DHT22;2015;48.670;9.060;2022-08-21T04:43:55;12.60;99.90
4002;DHT22;2015;48.670;9.060;2022-08-21T04:46:27;12.60;99.90
4002;DHT22;2015;48.670;9.060;2022-08-21T04:48:59;12.60;99.90
4002;DHT22;2015;48.670;9.060;2022-08-21T04:51:34;12.50;99.90
4002;DHT22;2015;48.670;9.060;2022-08-21T04:54:34;12.50;99.90
4002;DHT22;2015;48.670;9.060;2022-08-21T04:57:07;12.50;99.90
4002;DHT22;2015;48.670;9.060;2022-08-21T04:59:48;12.50;99.90
4002;DHT22;2015;48.670;9.060;2022-08-21T05:02:21;12.50;99.90
4002;DHT22;2015;48.670;9.060;2022-08-21T05:04:54;12.60;99.90
4002;DHT22;2015;48.670;9.060;2022-08-21T05:07:29;12.60;99.90
4002;DHT22;2015;48.670;9.060;2022-08-21T05:10:13;12.70;99.90
4002;DHT22;2015;48.670;9.060;2022-08-21T05:12:45;12.80;99.90
4002;DHT22;2015;48.670;9.060;2022-08-21T05:15:17;12.80;99.90
4002;DHT22;2015;48.670;9.060;2022-08-21T05:17:49;12.90;99.90
4002;DHT22;2015;48.670;9.060;2022-08-21T05:20:26;12.90;99.90
4002;DHT22;2015;48.670;9.060;2022-08-21T05:22:57;12.90;99.90
4002;DHT22;2015;48.670;9.060;2022-08-21T05:25:29;13.00;99.90
4002;DHT22;2015;48.670;9.060;2022-08-21T05:28:01;13.00;99.90
4002;DHT22;2015;48.670;9.060;2022-08-21T05:30:34;13.00;99.90
4002;DHT22;2015;48.670;9.060;2022-08-21T05:33:07;13.10;99.90
4002;DHT22;2015;48.670;9.060;2022-08-21T05:35:39;13.10;99.90
4002;DHT22;2015;48.670;9.060;2022-08-21T05:38:11;13.20;99.90
4002;DHT22;2015;48.670;9.060;2022-08-21T05:40:48;13.20;99.90
4002;DHT22;2015;48.670;9.060;2022-08-21T05:43:20;13.30;99.90
4002;DHT22;2015;48.670;9.060;2022-08-21T05:45:52;13.40;99.90
4002;DHT22;2015;48.670;9.060;2022-08-21T05:48:24;13.40;99.90
4002;DHT22;2015;48.670;9.060;2022-08-21T05:50:56;13.50;99.90
4002;DHT22;2015;48.670;9.060;2022-08-21T05:53:28;13.60;99.90
4002;DHT22;2015;48.670;9.060;2022-08-21T05:56:00;13.60;99.90
4002;DHT22;2015;48.670;9.060;2022-08-21T05:58:35;13.70;99.90
4002;DHT22;2015;48.670;9.060;2022-08-21T06:01:07;13.80;99.90
4002;DHT22;2015;48.670;9.060;2022-08-21T06:03:40;13.90;99.90
4002;DHT22;2015;48.670;9.060;2022-08-21T06:06:12;14.00;99.90
4002;DHT22;2015;48.670;9.060;2022-08-21T06:08:44;14.10;99.90
4002;DHT22;2015;48.670;9.060;2022-08-21T06:11:16;14.10;99.90
4002;DHT22;2015;48.670;9.060;2022-08-21T06:13:47;14.20;99.90
4002;DHT22;2015;48.670;9.060;2022-08-21T06:16:19;14.30;99.90
4002;DHT22;2015;48.670;9.060;2022-08-21T06:18:51;14.50;99.90
4002;DHT22;2015;48.670;9.060;2022-08-21T06:21:23;14.60;99.90
4002;DHT22;2015;48.670;9.060;2022-08-21T06:23:55;14.70;99.90
4002;DHT22;2015;48.670;9.060;2022-08-21T06:26:27;14.80;99.90
4002;DHT22;2015;48.670;9.060;2022-08-21T06:29:00;14.80;99.90
4002;DHT22;2015;48.670;9.060;2022-08-21T06:31:32;15.00;99.90
4002;DHT22;2015;48.670;9.060;2022-08-21T06:34:04;15.10;99.90
4002;DHT22;2015;48.670;9.060;2022-08-21T06:36:36;15.20;99.90
4002;DHT22;2015;48.670;9.060;2022-08-21T06:39:08;15.30;99.90
4002;DHT22;2015;48.670;9.060;2022-08-21T06:41:56;15.40;99.90
4002;DHT22;2015;48.670;9.060;2022-08-21T06:44:29;15.50;99.90
4002;DHT22;2015;48.670;9.060;2022-08-21T06:47:01;15.80;99.90
4002;DHT22;2015;48.670;9.060;2022-08-21T06:49:34;16.00;99.90
4002;DHT22;2015;48.670;9.060;2022-08-21T06:52:10;16.10;99.90
4002;DHT22;2015;48.670;9.060;2022-08-21T06:54:42;16.20;99.90
4002;DHT22;2015;48.670;9.060;2022-08-21T06:57:14;16.30;99.90
4002;DHT22;2015;48.670;9.060;2022-08-21T06:59:46;16.30;99.90
4002;DHT22;2015;48.670;9.060;2022-08-21T07:02:18;16.50;99.90
4002;DHT22;2015;48.670;9.060;2022-08-21T07:04:49;16.60;99.90
4002;DHT22;2015;48.670;9.060;2022-08-21T07:07:22;16.70;99.90
4002;DHT22;2015;48.670;9.060;2022-08-21T07:09:54;16.80;99.90
4002;DHT22;2015;48.670;9.060;2022-08-21T07:12:25;16.90;99.90
4002;DHT22;2015;48.670;9.060;2022-08-21T07:14:57;17.00;99.90
4002;DHT22;2015;48.670;9.060;2022-08-21T07:17:29;17.10;99.90
4002;DHT22;2015;48.670;9.060;2022-08-21T07:20:02;17.30;99.90
4002;DHT22;2015;48.670;9.060;2022-08-21T07:22:36;17.40;99.90
4002;DHT22;2015;48.670;9.060;2022-08-21T07:25:09;17.50;99.90
4002;DHT22;2015;48.670;9.060;2022-08-21T07:27:41;17.60;99.90
4002;DHT22;2015;48.670;9.060;2022-08-21T07:30:12;17.70;99.90
4002;DHT22;2015;48.670;9.060;2022-08-21T07:32:44;17.80;99.90
4002;DHT22;2015;48.670;9.060;2022-08-21T07:35:18;18.00;99.90
4002;DHT22;2015;48.670;9.060;2022-08-21T07:37:50;18.10;99.90
4002;DHT22;2015;48.670;9.060;2022-08-21T07:40:22;18.20;99.90
4002;DHT22;2015;48.670;9.060;2022-08-21T07:42:54;18.30;99.90
4002;DHT22;2015;48.670;9.060;2022-08-21T07:45:26;18.40;99.90
4002;DHT22;2015;48.670;9.060;2022-08-21T07:47:58;18.50;99.90
4002;DHT22;2015;48.670;9.060;2022-08-21T07:50:30;18.60;99.90
4002;DHT22;2015;48.670;9.060;2022-08-21T07:53:02;18.70;99.90
4002;DHT22;2015;48.670;9.060;2022-08-21T07:55:34;18.70;99.90
4002;DHT22;2015;48.670;9.060;2022-08-21T07:58:06;18.80;99.90
4002;DHT22;2015;48.670;9.060;2022-08-21T08:00:39;18.90;99.90
4002;DHT22;2015;48.670;9.060;2022-08-21T08:03:11;19.00;99.90
4002;DHT22;2015;48.670;9.060;2022-08-21T08:05:43;19.20;99.90
4002;DHT22;2015;48.670;9.060;2022-08-21T08:08:15;19.20;99.90
4002;DHT22;2015;48.670;9.060;2022-08-21T08:10:46;19.30;99.90
4002;DHT22;2015;48.670;9.060;2022-08-21T08:13:20;19.40;99.90
4002;DHT22;2015;48.670;9.060;2022-08-21T08:15:52;19.40;99.90
4002;DHT22;2015;48.670;9.060;2022-08-21T08:18:24;19.50;99.90
4002;DHT22;2015;48.670;9.060;2022-08-21T08:20:55;19.60;99.90
4002;DHT22;2015;48.670;9.060;2022-08-21T08:23:27;19.80;99.90
4002;DHT22;2015;48.670;9.060;2022-08-21T08:26:00;19.90;99.90
4002;DHT22;2015;48.670;9.060;2022-08-21T08:28:34;20.10;99.90
4002;DHT22;2015;48.670;9.060;2022-08-21T08:31:05;20.20;99.90
4002;DHT22;2015;48.670;9.060;2022-08-21T08:33:37;20.20;99.90
4002;DHT22;2015;48.670;9.060;2022-08-21T08:36:14;20.40;99.90
4002;DHT22;2015;48.670;9.060;2022-08-21T08:38:47;20.50;99.90
4002;DHT22;2015;48.670;9.060;2022-08-21T08:41:20;20.60;99.90
4002;DHT22;2015;48.670;9.060;2022-08-21T08:44:04;20.70;99.90
4002;DHT22;2015;48.670;9.060;2022-08-21T08:46:48;20.80;99.90
4002;DHT22;2015;48.670;9.060;2022-08-21T08:49:37;21.00;99.90
4002;DHT22;2015;48.670;9.060;2022-08-21T08:52:32;21.10;99.90
4002;DHT22;2015;48.670;9.060;2022-08-21T08:55:28;21.30;99.90
4002;DHT22;2015;48.670;9.060;2022-08-21T08:58:02;21.40;99.90
4002;DHT22;2015;48.670;9.060;2022-08-21T09:00:34;21.50;99.90
4002;DHT22;2015;48.670;9.060;2022-08-21T09:03:06;21.60;99.90
4002;DHT22;2015;48.670;9.060;2022-08-21T09:05:46;21.60;99.90
4002;DHT22;2015;48.670;9.060;2022-08-21T09:11:07;22.10;99.90
4002;DHT22;2015;48.670;9.060;2022-08-21T09:13:54;22.40;99.90
4002;DHT22;2015;48.670;9.060;2022-08-21T09:16:38;22.80;99.90
4002;DHT22;2015;48.670;9.060;2022-08-21T09:19:36;23.60;99.90
4002;DHT22;2015;48.670;9.060;2022-08-21T09:25:20;26.70;96.80
4002;DHT22;2015;48.670;9.060;2022-08-21T09:27:54;28.60;92.90
4002;DHT22;2015;48.670;9.060;2022-08-21T09:30:30;29.50;90.10
4002;DHT22;2015;48.670;9.060;2022-08-21T09:33:03;29.90;87.00
4002;DHT22;2015;48.670;9.060;2022-08-21T09:35:35;30.30;85.10
4002;DHT22;2015;48.670;9.060;2022-08-21T09:38:09;30.90;84.40
4002;DHT22;2015;48.670;9.060;2022-08-21T09:40:44;31.40;80.80
4002;DHT22;2015;48.670;9.060;2022-08-21T09:43:22;31.60;79.40
4002;DHT22;2015;48.670;9.060;2022-08-21T09:48:49;32.10;74.60
4002;DHT22;2015;48.670;9.060;2022-08-21T09:51:24;32.20;75.50
4002;DHT22;2015;48.670;9.060;2022-08-21T09:56:51;33.70;70.40
4002;DHT22;2015;48.670;9.060;2022-08-21T09:59:43;34.00;69.80
4002;DHT22;2015;48.670;9.060;2022-08-21T10:02:28;33.60;69.50
4002;DHT22;2015;48.670;9.060;2022-08-21T10:05:14;34.00;69.10
4002;DHT22;2015;48.670;9.060;2022-08-21T10:07:46;34.00;67.50
4002;DHT22;2015;48.670;9.060;2022-08-21T10:10:25;34.30;66.40
4002;DHT22;2015;48.670;9.060;2022-08-21T10:19:38;33.90;66.80
4002;DHT22;2015;48.670;9.060;2022-08-21T10:25:21;34.50;62.50
4002;DHT22;2015;48.670;9.060;2022-08-21T10:36:25;34.50;61.00
4002;DHT22;2015;48.670;9.060;2022-08-21T10:39:25;34.60;59.90
4002;DHT22;2015;48.670;9.060;2022-08-21T10:43:02;34.90;62.10
4002;DHT22;2015;48.670;9.060;2022-08-21T10:50:38;35.30;59.40
4002;DHT22;2015;48.670;9.060;2022-08-21T11:02:10;35.10;58.90
4002;DHT22;2015;48.670;9.060;2022-08-21T11:05:02;35.30;58.30
4002;DHT22;2015;48.670;9.060;2022-08-21T11:07:51;35.00;58.50
4002;DHT22;2015;48.670;9.060;2022-08-21T11:10:26;35.00;58.40
4002;DHT22;2015;48.670;9.060;2022-08-21T11:13:08;35.30;58.20
4002;DHT22;2015;48.670;9.060;2022-08-21T11:15:50;35.40;57.40
4002;DHT22;2015;48.670;9.060;2022-08-21T11:18:34;35.60;57.50
4002;DHT22;2015;48.670;9.060;2022-08-21T11:21:37;35.50;57.20
4002;DHT22;2015;48.670;9.060;2022-08-21T11:27:28;35.10;57.20
4002;DHT22;2015;48.670;9.060;2022-08-21T11:30:06;34.90;56.30
4002;DHT22;2015;48.670;9.060;2022-08-21T11:35:45;32.40;61.20
4002;DHT22;2015;48.670;9.060;2022-08-21T11:38:34;31.30;62.40
4002;DHT22;2015;48.670;9.060;2022-08-21T11:41:29;30.70;64.20
4002;DHT22;2015;48.670;9.060;2022-08-21T11:44:41;30.10;64.70
4002;DHT22;2015;48.670;9.060;2022-08-21T11:50:20;28.50;69.90
4002;DHT22;2015;48.670;9.060;2022-08-21T11:53:11;28.00;71.80
4002;DHT22;2015;48.670;9.060;2022-08-21T11:55:52;27.70;71.00
4002;DHT22;2015;48.670;9.060;2022-08-21T12:01:33;27.70;71.60
4002;DHT22;2015;48.670;9.060;2022-08-21T12:04:16;27.60;72.40
4002;DHT22;2015;48.670;9.060;2022-08-21T12:06:49;27.70;72.10
4002;DHT22;2015;48.670;9.060;2022-08-21T12:12:12;27.50;71.60
4002;DHT22;2015;48.670;9.060;2022-08-21T12:14:50;27.50;71.90
4002;DHT22;2015;48.670;9.060;2022-08-21T12:17:24;27.40;71.80
4002;DHT22;2015;48.670;9.060;2022-08-21T12:23:02;26.90;71.60
4002;DHT22;2015;48.670;9.060;2022-08-21T12:25:41;26.80;73.00
4002;DHT22;2015;48.670;9.060;2022-08-21T12:28:21;26.70;73.50
4002;DHT22;2015;48.670;9.060;2022-08-21T12:30:53;26.70;74.10
4002;DHT22;2015;48.670;9.060;2022-08-21T12:33:39;26.50;74.00
4002;DHT22;2015;48.670;9.060;2022-08-21T12:36:15;26.50;74.40
4002;DHT22;2015;48.670;9.060;2022-08-21T12:39:03;26.80;76.20
4002;DHT22;2015;48.670;9.060;2022-08-21T12:41:45;26.90;72.20
4002;DHT22;2015;48.670;9.060;2022-08-21T12:44:26;26.80;74.80
4002;DHT22;2015;48.670;9.060;2022-08-21T12:47:11;26.90;76.40
4002;DHT22;2015;48.670;9.060;2022-08-21T12:50:19;26.90;75.50
4002;DHT22;2015;48.670;9.060;2022-08-21T12:52:59;26.90;75.80
4002;DHT22;2015;48.670;9.060;2022-08-21T12:55:33;26.80;75.50
4002;DHT22;2015;48.670;9.060;2022-08-21T12:58:05;26.70;76.50
4002;DHT22;2015;48.670;9.060;2022-08-21T13:00:37;26.80;75.20
4002;DHT22;2015;48.670;9.060;2022-08-21T13:03:09;26.80;75.00
4002;DHT22;2015;48.670;9.060;2022-08-21T13:05:41;26.90;74.80
4002;DHT22;2015;48.670;9.060;2022-08-21T13:08:13;27.00;73.60
4002;DHT22;2015;48.670;9.060;2022-08-21T13:10:48;27.20;75.20
4002;DHT22;2015;48.670;9.060;2022-08-21T13:13:24;27.10;73.70
4002;DHT22;2015;48.670;9.060;2022-08-21T13:16:02;27.10;71.90
4002;DHT22;2015;48.670;9.060;2022-08-21T13:19:01;27.10;72.20
4002;DHT22;2015;48.670;9.060;2022-08-21T13:21:39;26.90;72.80
4002;DHT22;2015;48.670;9.060;2022-08-21T13:24:26;26.60;72.80
4002;DHT22;2015;48.670;9.060;2022-08-21T13:27:29;26.50;73.40
4002;DHT22;2015;48.670;9.060;2022-08-21T13:30:06;26.60;72.80
4002;DHT22;2015;48.670;9.060;2022-08-21T13:32:47;26.80;73.10
4002;DHT22;2015;48.670;9.060;2022-08-21T13:35:26;26.80;74.00
4002;DHT22;2015;48.670;9.060;2022-08-21T13:37:59;26.80;71.40
4002;DHT22;2015;48.670;9.060;2022-08-21T13:40:39;26.60;72.90
4002;DHT22;2015;48.670;9.060;2022-08-21T13:43:14;26.50;74.30
4002;DHT22;2015;48.670;9.060;2022-08-21T13:45:53;26.10;75.30
4002;DHT22;2015;48.670;9.060;2022-08-21T13:48:30;25.90;76.70
4002;DHT22;2015;48.670;9.060;2022-08-21T13:51:04;25.60;76.30
4002;DHT22;2015;48.670;9.060;2022-08-21T13:53:47;25.40;78.70
4002;DHT22;2015;48.670;9.060;2022-08-21T13:58:55;25.60;78.50
4002;DHT22;2015;48.670;9.060;2022-08-21T14:01:31;25.80;76.50
4002;DHT22;2015;48.670;9.060;2022-08-21T14:04:12;25.90;75.90
4002;DHT22;2015;48.670;9.060;2022-08-21T14:06:48;25.90;76.20
4002;DHT22;2015;48.670;9.060;2022-08-21T14:09:39;25.80;76.70
4002;DHT22;2015;48.670;9.060;2022-08-21T14:12:16;25.80;76.80
4002;DHT22;2015;48.670;9.060;2022-08-21T14:14:55;25.90;77.40
4002;DHT22;2015;48.670;9.060;2022-08-21T14:17:32;26.00;76.00
4002;DHT22;2015;48.670;9.060;2022-08-21T14:20:11;26.00;77.10
4002;DHT22;2015;48.670;9.060;2022-08-21T14:22:47;25.90;76.60
4002;DHT22;2015;48.670;9.060;2022-08-21T14:28:23;25.40;76.30
4002;DHT22;2015;48.670;9.060;2022-08-21T14:31:14;25.30;77.40
4002;DHT22;2015;48.670;9.060;2022-08-21T14:33:48;25.20;77.20
4002;DHT22;2015;48.670;9.060;2022-08-21T14:36:20;25.40;77.90
4002;DHT22;2015;48.670;9.060;2022-08-21T14:38:51;25.40;76.50
4002;DHT22;2015;48.670;9.060;2022-08-21T14:41:25;25.40;76.60
4002;DHT22;2015;48.670;9.060;2022-08-21T14:43:59;25.30;75.80
4002;DHT22;2015;48.670;9.060;2022-08-21T14:46:40;25.30;76.70
4002;DHT22;2015;48.670;9.060;2022-08-21T14:49:29;25.40;76.40
4002;DHT22;2015;48.670;9.060;2022-08-21T14:52:01;25.40;76.40
4002;DHT22;2015;48.670;9.060;2022-08-21T14:54:33;25.40;77.30
4002;DHT22;2015;48.670;9.060;2022-08-21T14:57:09;25.20;77.50
4002;DHT22;2015;48.670;9.060;2022-08-21T14:59:41;25.20;78.80
4002;DHT22;2015;48.670;9.060;2022-08-21T15:02:14;25.20;77.10
4002;DHT22;2015;48.670;9.060;2022-08-21T15:04:46;25.20;77.10
4002;DHT22;2015;48.670;9.060;2022-08-21T15:07:18;25.00;77.90
4002;DHT22;2015;48.670;9.060;2022-08-21T15:09:49;24.80;79.20
4002;DHT22;2015;48.670;9.060;2022-08-21T15:12:22;24.70;79.00
4002;DHT22;2015;48.670;9.060;2022-08-21T15:14:54;24.60;79.90
4002;DHT22;2015;48.670;9.060;2022-08-21T15:17:26;24.50;80.10
4002;DHT22;2015;48.670;9.060;2022-08-21T15:19:57;24.40;79.20
4002;DHT22;2015;48.670;9.060;2022-08-21T15:22:31;24.30;78.30
4002;DHT22;2015;48.670;9.060;2022-08-21T15:25:04;24.30;78.20
4002;DHT22;2015;48.670;9.060;2022-08-21T15:27:35;24.40;77.70
4002;DHT22;2015;48.670;9.060;2022-08-21T15:30:08;24.30;77.80
4002;DHT22;2015;48.670;9.060;2022-08-21T15:32:40;24.30;80.00
4002;DHT22;2015;48.670;9.060;2022-08-21T15:35:13;24.30;79.40
4002;DHT22;2015;48.670;9.060;2022-08-21T15:37:45;24.30;78.60
4002;DHT22;2015;48.670;9.060;2022-08-21T15:40:17;24.30;78.80
4002;DHT22;2015;48.670;9.060;2022-08-21T15:42:51;24.30;78.30
4002;DHT22;2015;48.670;9.060;2022-08-21T15:45:24;24.30;77.70
4002;DHT22;2015;48.670;9.060;2022-08-21T15:47:57;24.30;78.20
4002;DHT22;2015;48.670;9.060;2022-08-21T15:50:29;24.10;78.40
4002;DHT22;2015;48.670;9.060;2022-08-21T15:53:02;24.00;79.60
4002;DHT22;2015;48.670;9.060;2022-08-21T15:55:34;23.90;80.70
4002;DHT22;2015;48.670;9.060;2022-08-21T15:58:07;23.90;80.80
4002;DHT22;2015;48.670;9.060;2022-08-21T16:00:44;23.90;81.20
4002;DHT22;2015;48.670;9.060;2022-08-21T16:03:17;23.90;79.00
4002;DHT22;2015;48.670;9.060;2022-08-21T16:05:52;23.90;79.10
4002;DHT22;2015;48.670;9.060;2022-08-21T16:08:27;24.00;80.50
4002;DHT22;2015;48.670;9.060;2022-08-21T16:11:00;24.00;80.90
4002;DHT22;2015;48.670;9.060;2022-08-21T16:13:39;24.00;81.10
4002;DHT22;2015;48.670;9.060;2022-08-21T16:16:20;24.00;81.40
4002;DHT22;2015;48.670;9.060;2022-08-21T16:18:52;24.10;79.30
4002;DHT22;2015;48.670;9.060;2022-08-21T16:21:25;24.20;79.90
4002;DHT22;2015;48.670;9.060;2022-08-21T16:23:57;24.30;79.80
4002;DHT22;2015;48.670;9.060;2022-08-21T16:26:29;24.30;78.10
4002;DHT22;2015;48.670;9.060;2022-08-21T16:29:05;24.30;80.30
4002;DHT22;2015;48.670;9.060;2022-08-21T16:31:37;24.20;79.00
4002;DHT22;2015;48.670;9.060;2022-08-21T16:34:15;24.20;78.70
4002;DHT22;2015;48.670;9.060;2022-08-21T16:36:47;24.30;77.90
4002;DHT22;2015;48.670;9.060;2022-08-21T16:39:19;24.20;79.10
4002;DHT22;2015;48.670;9.060;2022-08-21T16:41:51;24.10;78.50
4002;DHT22;2015;48.670;9.060;2022-08-21T16:44:23;24.00;79.50
4002;DHT22;2015;48.670;9.060;2022-08-21T16:46:55;23.90;79.30
4002;DHT22;2015;48.670;9.060;2022-08-21T16:49:27;23.80;80.90
4002;DHT22;2015;48.670;9.060;2022-08-21T16:51:59;23.80;80.20
4002;DHT22;2015;48.670;9.060;2022-08-21T16:54:31;23.80;79.20
4002;DHT22;2015;48.670;9.060;2022-08-21T16:57:03;23.80;80.40
4002;DHT22;2015;48.670;9.060;2022-08-21T16:59:35;23.80;79.00
4002;DHT22;2015;48.670;9.060;2022-08-21T17:04:57;23.70;79.70
4002;DHT22;2015;48.670;9.060;2022-08-21T17:07:30;23.70;81.10
4002;DHT22;2015;48.670;9.060;2022-08-21T17:10:08;23.70;80.30
4002;DHT22;2015;48.670;9.060;2022-08-21T17:12:42;23.70;81.00
4002;DHT22;2015;48.670;9.060;2022-08-21T17:15:19;23.50;87.60
4002;DHT22;2015;48.670;9.060;2022-08-21T17:17:52;23.30;90.00
4002;DHT22;2015;48.670;9.060;2022-08-21T17:20:27;23.10;89.10
4002;DHT22;2015;48.670;9.060;2022-08-21T17:22:59;22.90;90.30
4002;DHT22;2015;48.670;9.060;2022-08-21T17:25:31;22.80;91.30
4002;DHT22;2015;48.670;9.060;2022-08-21T17:28:03;22.70;91.80
4002;DHT22;2015;48.670;9.060;2022-08-21T17:30:35;22.50;92.30
4002;DHT22;2015;48.670;9.060;2022-08-21T17:33:08;22.30;93.60
4002;DHT22;2015;48.670;9.060;2022-08-21T17:35:41;22.20;94.40
4002;DHT22;2015;48.670;9.060;2022-08-21T17:38:13;22.00;94.60
4002;DHT22;2015;48.670;9.060;2022-08-21T17:40:47;21.90;95.00
4002;DHT22;2015;48.670;9.060;2022-08-21T17:43:19;21.80;95.20
4002;DHT22;2015;48.670;9.060;2022-08-21T17:45:51;21.60;95.50
4002;DHT22;2015;48.670;9.060;2022-08-21T17:48:24;21.50;95.80
4002;DHT22;2015;48.670;9.060;2022-08-21T17:50:56;21.40;96.00
4002;DHT22;2015;48.670;9.060;2022-08-21T17:53:28;21.30;96.10
4002;DHT22;2015;48.670;9.060;2022-08-21T17:56:00;21.20;96.50
4002;DHT22;2015;48.670;9.060;2022-08-21T17:58:32;21.10;96.60
4002;DHT22;2015;48.670;9.060;2022-08-21T18:01:05;21.00;96.10
4002;DHT22;2015;48.670;9.060;2022-08-21T18:03:37;20.90;96.20